Time;durP1;ratioP1;P1;durP2;ratioP2;P2;SDS_P1;SDS_P2;PMS_P1;PMS_P2;Temp;Humidity;BMP_temperature;BMP_pressure;BME280_temperature;BME280_humidity;BME280_pressure;Samples;Min_cycle;Max_cycle;Signal;HPM_P1;HPM_P2
2020/12/18 00:02:04;;;;;;;3.63;2.92;;;10.10;99.90;;;;;;5126232;27;20202;-79
2020/12/18 00:04:31;;;;;;;5.40;3.42;;;10.10;99.90;;;;;;5122826;27;20210;-79
2020/12/18 00:06:57;;;;;;;3.45;2.72;;;10.10;99.90;;;;;;5114614;27;20196;-79
2020/12/18 00:09:23;;;;;;;3.58;2.80;;;10.00;99.90;;;;;;5113291;28;20717;-79
2020/12/18 00:11:50;;;;;;;4.40;3.83;;;10.10;99.90;;;;;;5113017;28;20227;-78
2020/12/18 00:14:16;;;;;;;5.00;2.78;;;10.10;99.90;;;;;;5120631;27;20203;-80
2020/12/18 00:16:43;;;;;;;4.20;2.90;;;10.10;99.90;;;;;;5130597;27;20198;-80
2020/12/18 00:19:09;;;;;;;3.70;2.40;;;10.00;99.90;;;;;;5125218;27;20589;-79
2020/12/18 00:21:35;;;;;;;4.45;2.47;;;10.00;99.90;;;;;;5116852;27;20289;-78
2020/12/18 00:24:02;;;;;;;2.58;2.30;;;10.10;99.90;;;;;;5114067;28;20202;-79
2020/12/18 00:26:34;;;;;;;4.13;3.25;;;10.00;99.90;;;;;;5113440;27;20696;-79
2020/12/18 00:29:00;;;;;;;3.05;2.65;;;10.00;99.90;;;;;;5113369;28;20249;-80
2020/12/18 00:31:27;;;;;;;3.20;2.88;;;10.00;99.90;;;;;;5112843;28;20263;-80
2020/12/18 00:33:55;;;;;;;2.33;2.10;;;10.00;99.90;;;;;;5113627;27;20200;-78
2020/12/18 00:36:21;;;;;;;8.02;3.13;;;10.00;99.90;;;;;;5125763;27;20201;-78
2020/12/18 00:38:47;;;;;;;3.13;2.55;;;9.90;99.90;;;;;;5114236;27;20195;-77
2020/12/18 00:41:14;;;;;;;3.33;2.63;;;9.90;99.90;;;;;;5132642;27;20235;-79
2020/12/18 00:43:40;;;;;;;3.75;2.80;;;10.00;99.90;;;;;;5133706;27;20200;-79
2020/12/18 00:46:06;;;;;;;2.95;2.17;;;9.90;99.90;;;;;;5118779;27;20215;-77
2020/12/18 00:48:33;;;;;;;2.67;2.25;;;10.00;99.90;;;;;;5112836;27;20207;-77
2020/12/18 00:51:00;;;;;;;2.58;2.38;;;10.00;99.90;;;;;;5116791;27;20211;-77
2020/12/18 00:53:26;;;;;;;3.65;2.42;;;10.00;99.90;;;;;;5118528;27;20560;-79
2020/12/18 00:55:52;;;;;;;3.22;2.38;;;9.90;99.90;;;;;;5113422;27;20193;-79
2020/12/18 00:58:19;;;;;;;2.72;2.30;;;9.90;99.90;;;;;;5130477;27;20233;-79
2020/12/18 01:00:45;;;;;;;4.65;2.40;;;9.80;99.90;;;;;;5126771;27;20208;-79
2020/12/18 01:03:11;;;;;;;2.38;1.85;;;9.90;99.90;;;;;;5124256;27;20192;-79
2020/12/18 01:05:38;;;;;;;4.55;2.65;;;9.90;99.90;;;;;;5132444;27;20208;-79
2020/12/18 01:08:05;;;;;;;2.58;2.20;;;9.90;99.90;;;;;;5131138;27;20644;-80
2020/12/18 01:10:31;;;;;;;4.00;2.38;;;9.90;99.90;;;;;;5113058;27;20629;-79
2020/12/18 01:12:57;;;;;;;4.97;1.95;;;9.90;99.90;;;;;;5112904;28;20216;-79
2020/12/18 01:15:23;;;;;;;5.07;2.35;;;9.80;99.90;;;;;;5122353;27;20200;-80
2020/12/18 01:17:50;;;;;;;3.50;2.08;;;9.80;99.90;;;;;;5116758;27;20219;-79
2020/12/18 01:20:16;;;;;;;3.05;2.75;;;9.80;99.90;;;;;;5129206;27;20527;-79
2020/12/18 01:22:42;;;;;;;3.13;2.72;;;9.80;99.90;;;;;;5133446;27;20188;-80
2020/12/18 01:25:12;;;;;;;3.28;2.35;;;9.80;99.90;;;;;;5122530;27;20816;-80
2020/12/18 01:27:38;;;;;;;3.58;2.65;;;9.70;99.90;;;;;;5112987;28;20203;-79
2020/12/18 01:30:04;;;;;;;3.45;2.38;;;9.80;99.90;;;;;;5122566;27;20192;-79
2020/12/18 01:32:30;;;;;;;2.90;2.53;;;9.70;99.90;;;;;;5121596;27;20219;-78
2020/12/18 01:34:57;;;;;;;2.33;2.13;;;9.70;99.90;;;;;;5112853;28;20192;-77
2020/12/18 01:37:23;;;;;;;1.70;1.60;;;9.70;99.90;;;;;;5112769;28;20201;-78
2020/12/18 01:39:49;;;;;;;4.50;2.33;;;9.70;99.90;;;;;;5122051;27;20226;-79
2020/12/18 01:42:17;;;;;;;2.10;1.90;;;9.70;99.90;;;;;;5120549;27;20253;-79
2020/12/18 01:44:43;;;;;;;2.83;2.30;;;9.70;99.90;;;;;;5130017;27;20199;-79
2020/12/18 01:47:23;;;;;;;1.95;1.77;;;9.70;99.90;;;;;;5129628;27;20252;-80
2020/12/18 01:49:49;;;;;;;1.50;1.40;;;9.70;99.90;;;;;;5127259;27;20221;-79
2020/12/18 01:52:16;;;;;;;2.60;2.05;;;9.70;99.90;;;;;;5132824;27;20220;-79
2020/12/18 01:54:43;;;;;;;4.55;2.15;;;9.70;99.90;;;;;;5128449;27;20617;-80
2020/12/18 01:57:09;;;;;;;2.58;2.20;;;9.70;99.90;;;;;;5120991;28;20192;-79
2020/12/18 01:59:37;;;;;;;2.50;1.90;;;9.70;99.90;;;;;;5132989;27;20199;-79
2020/12/18 02:02:03;;;;;;;2.65;1.70;;;9.70;99.90;;;;;;5116777;27;20202;-79
2020/12/18 02:04:29;;;;;;;2.15;1.95;;;9.70;99.90;;;;;;5113322;28;20203;-79
2020/12/18 02:06:58;;;;;;;2.70;2.13;;;9.70;99.90;;;;;;5114530;28;20223;-79
2020/12/18 02:09:24;;;;;;;2.30;2.10;;;9.70;99.90;;;;;;5128292;27;20196;-80
2020/12/18 02:11:53;;;;;;;1.85;1.75;;;9.70;99.90;;;;;;5115035;27;20295;-79
2020/12/18 02:14:20;;;;;;;4.60;2.05;;;9.60;99.90;;;;;;5111762;28;20560;-80
2020/12/18 02:16:48;;;;;;;2.55;2.00;;;9.60;99.90;;;;;;5114785;28;20218;-80
2020/12/18 02:19:19;;;;;;;2.20;2.00;;;9.60;99.90;;;;;;5122978;27;20211;-79
2020/12/18 02:21:45;;;;;;;2.33;2.13;;;9.60;99.90;;;;;;5113445;28;20200;-79
2020/12/18 02:24:21;;;;;;;3.67;2.25;;;9.70;99.90;;;;;;5120627;28;20244;-77
2020/12/18 02:26:49;;;;;;;1.75;1.65;;;9.60;99.90;;;;;;5119145;27;20188;-77
2020/12/18 02:29:15;;;;;;;2.03;1.70;;;9.60;99.90;;;;;;5117988;27;20208;-77
2020/12/18 02:31:41;;;;;;;4.25;1.92;;;9.60;99.90;;;;;;5124385;27;20212;-77
2020/12/18 02:34:07;;;;;;;2.55;2.05;;;9.60;99.90;;;;;;5123414;27;20197;-77
2020/12/18 02:36:34;;;;;;;2.25;2.03;;;9.60;99.90;;;;;;5125688;28;20196;-77
2020/12/18 02:39:00;;;;;;;2.55;2.20;;;9.70;99.90;;;;;;5111836;28;20532;-77
2020/12/18 02:41:27;;;;;;;2.05;1.85;;;9.60;99.90;;;;;;5113908;28;20280;-78
2020/12/18 02:43:54;;;;;;;2.30;2.03;;;9.70;99.90;;;;;;5115570;27;20201;-76
2020/12/18 02:46:20;;;;;;;2.33;2.10;;;9.70;99.90;;;;;;5112317;28;20201;-77
2020/12/18 02:48:46;;;;;;;2.78;1.52;;;9.70;99.90;;;;;;5125997;27;20238;-77
2020/12/18 02:51:13;;;;;;;2.22;1.83;;;9.70;99.90;;;;;;5113104;28;20192;-81
2020/12/18 02:53:39;;;;;;;4.15;2.17;;;9.70;99.90;;;;;;5122099;28;20212;-78
2020/12/18 02:56:05;;;;;;;2.30;2.05;;;9.70;99.90;;;;;;5113800;27;20536;-78
2020/12/18 02:58:31;;;;;;;2.05;1.92;;;9.70;99.90;;;;;;5122989;27;20218;-78
2020/12/18 03:00:58;;;;;;;3.15;2.30;;;9.80;99.90;;;;;;5115638;28;20227;-78
2020/12/18 03:03:25;;;;;;;2.88;2.25;;;9.80;99.90;;;;;;5115528;28;20203;-78
2020/12/18 03:05:51;;;;;;;2.30;1.77;;;9.80;99.90;;;;;;5126109;27;20639;-77
2020/12/18 03:08:17;;;;;;;3.00;1.90;;;9.80;99.90;;;;;;5115475;27;20197;-78
2020/12/18 03:10:43;;;;;;;2.83;1.75;;;9.70;99.90;;;;;;5115592;28;20253;-78
2020/12/18 03:13:10;;;;;;;2.38;1.55;;;9.70;99.90;;;;;;5114738;27;20216;-78
2020/12/18 03:15:36;;;;;;;2.47;1.80;;;9.70;99.90;;;;;;5115172;28;20197;-77
2020/12/18 03:18:03;;;;;;;3.70;1.60;;;9.70;99.90;;;;;;5118919;27;20204;-78
2020/12/18 03:20:29;;;;;;;2.25;1.60;;;9.70;99.90;;;;;;5123238;27;20875;-78
2020/12/18 03:22:56;;;;;;;2.08;1.77;;;9.70;99.90;;;;;;5116057;27;20207;-78
2020/12/18 03:25:22;;;;;;;1.90;1.70;;;9.70;99.90;;;;;;5115334;28;20245;-78
2020/12/18 03:27:48;;;;;;;2.13;1.92;;;9.70;99.90;;;;;;5114683;27;20200;-78
2020/12/18 03:30:14;;;;;;;2.15;1.50;;;9.70;99.90;;;;;;5120255;27;20218;-80
2020/12/18 03:32:40;;;;;;;4.07;2.63;;;9.60;99.90;;;;;;5119128;27;20212;-80
2020/12/18 03:35:08;;;;;;;2.38;2.10;;;9.70;99.90;;;;;;5121006;27;20194;-79
2020/12/18 03:37:34;;;;;;;4.25;2.05;;;9.70;99.90;;;;;;5121307;27;20197;-79
2020/12/18 03:40:00;;;;;;;2.60;2.03;;;9.70;99.90;;;;;;5130156;27;20808;-79
2020/12/18 03:42:27;;;;;;;1.70;1.55;;;9.70;99.90;;;;;;5134722;27;20192;-79
2020/12/18 03:44:53;;;;;;;1.75;1.42;;;9.70;99.90;;;;;;5135457;27;20196;-79
2020/12/18 03:47:20;;;;;;;2.28;1.40;;;9.70;99.90;;;;;;5132111;27;20747;-79
2020/12/18 03:49:46;;;;;;;1.63;1.38;;;9.60;99.90;;;;;;5135161;27;20200;-77
2020/12/18 03:52:13;;;;;;;2.22;1.85;;;9.60;99.90;;;;;;5133916;27;20216;-78
2020/12/18 03:54:39;;;;;;;1.55;1.40;;;9.60;99.90;;;;;;5120343;27;20620;-78
2020/12/18 03:57:06;;;;;;;1.45;1.35;;;9.60;99.90;;;;;;5132014;27;20196;-77
2020/12/18 03:59:32;;;;;;;2.58;2.20;;;9.60;99.90;;;;;;5134899;27;20195;-78
2020/12/18 04:01:58;;;;;;;2.67;1.73;;;9.60;99.90;;;;;;5132670;27;20585;-80
2020/12/18 04:04:25;;;;;;;2.78;1.55;;;9.60;99.90;;;;;;5114782;27;20205;-78
2020/12/18 04:06:51;;;;;;;1.90;1.73;;;9.60;99.90;;;;;;5113810;27;20197;-77
2020/12/18 04:09:18;;;;;;;2.67;1.58;;;9.60;99.90;;;;;;5113963;28;20216;-78
2020/12/18 04:11:45;;;;;;;3.50;1.83;;;9.60;99.90;;;;;;5126802;27;20210;-77
2020/12/18 04:14:11;;;;;;;3.08;1.75;;;9.60;99.90;;;;;;5118233;27;20788;-78
2020/12/18 04:16:38;;;;;;;2.72;1.77;;;9.60;99.90;;;;;;5114561;27;20196;-79
2020/12/18 04:19:04;;;;;;;1.60;1.40;;;9.60;99.90;;;;;;5125298;27;20214;-79
2020/12/18 04:21:30;;;;;;;2.88;1.42;;;9.60;99.90;;;;;;5120099;27;20196;-79
2020/12/18 04:23:57;;;;;;;2.30;1.90;;;9.60;99.90;;;;;;5114081;27;20350;-78
2020/12/18 04:26:24;;;;;;;3.00;2.30;;;9.60;99.90;;;;;;5114124;27;20200;-79
2020/12/18 04:28:50;;;;;;;2.95;1.75;;;9.50;99.90;;;;;;5114000;28;20201;-76
2020/12/18 04:31:17;;;;;;;1.63;1.50;;;9.60;99.90;;;;;;5126852;27;20581;-79
2020/12/18 04:33:44;;;;;;;4.30;1.80;;;9.50;99.90;;;;;;5113222;28;20269;-78
2020/12/18 04:36:10;;;;;;;2.90;2.60;;;9.50;99.90;;;;;;5113318;28;20200;-78
2020/12/18 04:38:36;;;;;;;2.80;1.98;;;9.50;99.90;;;;;;5113771;28;20207;-81
2020/12/18 04:41:03;;;;;;;4.65;1.55;;;9.50;99.90;;;;;;5119126;27;20234;-81
2020/12/18 04:43:30;;;;;;;1.42;1.33;;;9.50;99.90;;;;;;5134032;27;20188;-80
2020/12/18 04:45:59;;;;;;;2.05;1.52;;;9.50;99.90;;;;;;5129336;27;20188;-81
2020/12/18 04:48:26;;;;;;;1.95;1.50;;;9.50;99.90;;;;;;5121508;27;20203;-81
2020/12/18 04:50:56;;;;;;;2.30;1.70;;;9.50;99.90;;;;;;5118975;27;20241;-81
2020/12/18 04:53:26;;;;;;;4.53;1.58;;;9.50;99.90;;;;;;5112989;28;20216;-76
2020/12/18 04:55:54;;;;;;;1.50;1.38;;;9.50;99.90;;;;;;5113913;27;20276;-76
2020/12/18 04:58:22;;;;;;;1.90;1.58;;;9.50;99.90;;;;;;5131997;27;20200;-76
2020/12/18 05:00:54;;;;;;;2.05;1.85;;;9.50;99.90;;;;;;5124394;27;20193;-78
2020/12/18 05:03:22;;;;;;;1.90;1.65;;;9.50;99.90;;;;;;5133587;27;20184;-78
2020/12/18 05:05:48;;;;;;;6.30;1.42;;;9.50;99.90;;;;;;5117902;27;20200;-78
2020/12/18 05:08:14;;;;;;;3.38;1.35;;;9.50;99.90;;;;;;5112596;28;20257;-79
2020/12/18 05:10:41;;;;;;;2.60;2.00;;;9.50;99.90;;;;;;5113132;28;20196;-78
2020/12/18 05:13:07;;;;;;;4.70;1.50;;;9.50;99.90;;;;;;5112703;28;20672;-77
2020/12/18 05:15:33;;;;;;;2.28;1.75;;;9.50;99.90;;;;;;5125505;27;20195;-78
2020/12/18 05:18:01;;;;;;;4.15;2.00;;;9.50;99.90;;;;;;5125407;27;20571;-79
2020/12/18 05:20:27;;;;;;;1.60;1.20;;;9.50;99.90;;;;;;5113110;27;20189;-78
2020/12/18 05:22:54;;;;;;;6.32;1.55;;;9.50;99.90;;;;;;5112934;28;20192;-80
2020/12/18 05:25:20;;;;;;;3.20;1.52;;;9.40;99.90;;;;;;5123384;27;20830;-80
2020/12/18 05:27:49;;;;;;;2.17;1.80;;;9.40;99.90;;;;;;5112965;27;20207;-80
2020/12/18 05:30:20;;;;;;;2.80;1.50;;;9.40;99.90;;;;;;5114360;28;20193;-79
2020/12/18 05:32:52;;;;;;;4.18;1.65;;;9.40;99.90;;;;;;5114689;27;20243;-79
2020/12/18 05:35:20;;;;;;;2.08;1.88;;;9.40;99.90;;;;;;5125853;27;20201;-79
2020/12/18 05:37:46;;;;;;;4.43;2.05;;;9.40;99.90;;;;;;5112547;28;20230;-79
2020/12/18 05:40:13;;;;;;;2.42;1.40;;;9.40;99.90;;;;;;5112188;28;20296;-79
2020/12/18 05:42:43;;;;;;;2.60;1.80;;;9.40;99.90;;;;;;5112371;28;20740;-78
2020/12/18 05:45:15;;;;;;;2.65;1.60;;;9.40;99.90;;;;;;5112861;28;20189;-80
2020/12/18 05:47:57;;;;;;;1.63;1.52;;;9.40;99.90;;;;;;5129061;27;20204;-79
2020/12/18 05:50:28;;;;;;;1.75;1.38;;;9.40;99.90;;;;;;5114707;27;20263;-79
2020/12/18 05:52:57;;;;;;;3.53;1.70;;;9.40;99.90;;;;;;5113307;28;20544;-79
2020/12/18 05:55:24;;;;;;;2.70;1.92;;;9.40;99.90;;;;;;5112712;28;20197;-80
2020/12/18 05:57:50;;;;;;;2.60;1.73;;;9.40;99.90;;;;;;5126807;28;20281;-79
2020/12/18 06:00:16;;;;;;;2.95;2.22;;;9.30;99.90;;;;;;5133148;27;20639;-79
2020/12/18 06:02:44;;;;;;;4.70;2.08;;;9.30;99.90;;;;;;5129877;27;20201;-78
2020/12/18 06:05:10;;;;;;;4.38;1.38;;;9.30;99.90;;;;;;5128275;28;20196;-78
2020/12/18 06:07:40;;;;;;;3.60;1.80;;;9.30;99.90;;;;;;5112422;28;20197;-78
2020/12/18 06:10:07;;;;;;;4.90;2.05;;;9.30;99.90;;;;;;5114590;28;20562;-78
2020/12/18 06:12:33;;;;;;;2.30;2.00;;;9.30;99.90;;;;;;5112936;28;20238;-77
2020/12/18 06:15:01;;;;;;;7.07;1.83;;;9.30;99.90;;;;;;5112213;28;20288;-79
2020/12/18 06:17:28;;;;;;;2.97;1.67;;;9.20;99.90;;;;;;5115433;28;20201;-80
2020/12/18 06:19:57;;;;;;;2.10;1.85;;;9.30;99.90;;;;;;5112340;28;20193;-80
2020/12/18 06:22:24;;;;;;;2.17;1.58;;;9.30;99.90;;;;;;5112216;28;20197;-80
2020/12/18 06:24:51;;;;;;;2.20;1.80;;;9.30;99.90;;;;;;5111866;28;20193;-80
2020/12/18 06:27:19;;;;;;;2.15;1.95;;;9.30;99.90;;;;;;5128271;28;20552;-80
2020/12/18 06:29:47;;;;;;;2.40;1.67;;;9.20;99.90;;;;;;5121367;27;20208;-81
2020/12/18 06:32:21;;;;;;;6.00;2.30;;;9.30;99.90;;;;;;5115915;27;20280;-80
2020/12/18 06:34:48;;;;;;;4.18;1.85;;;9.10;99.90;;;;;;5115856;28;20192;-79
2020/12/18 06:37:25;;;;;;;2.15;1.80;;;9.20;99.90;;;;;;5134905;27;20320;-78
2020/12/18 06:39:53;;;;;;;2.75;2.08;;;9.10;99.90;;;;;;5134922;27;20230;-81
2020/12/18 06:42:22;;;;;;;2.38;2.10;;;9.20;99.90;;;;;;5117192;27;20675;-82
2020/12/18 06:44:50;;;;;;;3.40;1.88;;;9.20;99.90;;;;;;5125422;27;20309;-79
2020/12/18 06:47:19;;;;;;;2.33;1.73;;;9.20;99.90;;;;;;5133744;27;20248;-79
2020/12/18 06:50:06;;;;;;;3.47;1.90;;;9.10;99.90;;;;;;5120850;27;20201;-79
2020/12/18 06:52:40;;;;;;;1.65;1.50;;;9.20;99.90;;;;;;5115593;28;20201;-78
2020/12/18 06:55:09;;;;;;;3.00;1.90;;;9.10;99.90;;;;;;5116344;27;20192;-78
2020/12/18 06:57:36;;;;;;;2.17;1.90;;;9.20;99.90;;;;;;5128002;27;20200;-79
2020/12/18 07:00:30;;;;;;;1.80;1.70;;;9.20;99.90;;;;;;5116285;27;20197;-78
2020/12/18 07:02:57;;;;;;;3.13;1.77;;;9.10;99.90;;;;;;5129217;27;20188;-79
2020/12/18 07:05:35;;;;;;;7.85;1.70;;;9.10;99.90;;;;;;5132724;27;20207;-79
2020/12/18 07:08:04;;;;;;;1.92;1.60;;;9.00;99.90;;;;;;5115781;28;20181;-79
2020/12/18 07:10:34;;;;;;;2.05;1.40;;;9.00;99.90;;;;;;5135691;27;20200;-79
2020/12/18 07:13:00;;;;;;;4.25;1.70;;;9.10;99.90;;;;;;5135897;27;20214;-79
2020/12/18 07:15:28;;;;;;;2.45;2.10;;;9.10;99.90;;;;;;5127825;27;20200;-79
2020/12/18 07:17:56;;;;;;;1.50;1.40;;;9.00;99.90;;;;;;5133451;27;20195;-79
2020/12/18 07:20:26;;;;;;;1.90;1.70;;;9.00;99.90;;;;;;5125452;27;20200;-79
2020/12/18 07:22:53;;;;;;;2.03;1.58;;;9.00;99.90;;;;;;5123782;27;20509;-79
2020/12/18 07:25:19;;;;;;;1.60;1.50;;;9.00;99.90;;;;;;5115838;27;20196;-80
2020/12/18 07:27:47;;;;;;;3.35;1.70;;;9.00;99.90;;;;;;5118127;27;20210;-80
2020/12/18 07:30:13;;;;;;;3.15;1.90;;;9.00;99.90;;;;;;5116446;27;20257;-76
2020/12/18 07:32:40;;;;;;;1.90;1.65;;;9.00;99.90;;;;;;5114270;27;20230;-76
2020/12/18 07:35:08;;;;;;;1.70;1.33;;;9.00;99.90;;;;;;5115815;27;20188;-76
2020/12/18 07:37:35;;;;;;;5.47;1.95;;;9.00;99.90;;;;;;5119161;27;20581;-76
2020/12/18 07:40:01;;;;;;;3.50;1.40;;;9.00;99.90;;;;;;5115297;27;20226;-75
2020/12/18 07:42:28;;;;;;;2.40;1.35;;;9.00;99.90;;;;;;5113147;28;20193;-75
2020/12/18 07:45:06;;;;;;;2.00;1.77;;;9.10;99.90;;;;;;5113835;28;20519;-75
2020/12/18 07:47:35;;;;;;;4.75;1.90;;;9.00;99.90;;;;;;5114480;28;20250;-76
2020/12/18 07:50:03;;;;;;;1.90;1.80;;;9.00;99.90;;;;;;5127312;27;20200;-74
2020/12/18 07:52:30;;;;;;;3.08;1.50;;;9.00;99.90;;;;;;5131296;27;20212;-75
2020/12/18 07:54:56;;;;;;;5.00;2.00;;;9.00;99.90;;;;;;5118344;27;20248;-79
2020/12/18 07:57:23;;;;;;;3.25;1.65;;;9.00;99.90;;;;;;5135286;27;20200;-78
2020/12/18 07:59:50;;;;;;;3.20;1.48;;;8.80;99.90;;;;;;5134106;27;20617;-78
2020/12/18 08:02:26;;;;;;;2.20;1.70;;;8.90;99.90;;;;;;5115260;27;20193;-77
2020/12/18 08:04:59;;;;;;;3.35;1.83;;;8.80;99.90;;;;;;5113886;28;20199;-77
2020/12/18 08:07:25;;;;;;;3.60;1.73;;;8.80;99.90;;;;;;5114271;28;20692;-78
2020/12/18 08:10:00;;;;;;;4.03;2.70;;;8.90;99.90;;;;;;5116780;27;20283;-76
2020/12/18 08:12:29;;;;;;;6.10;2.08;;;8.80;99.90;;;;;;5119363;27;20261;-79
2020/12/18 08:15:11;;;;;;;7.10;2.50;;;8.70;99.90;;;;;;5114518;27;20258;-79
2020/12/18 08:17:39;;;;;;;3.30;2.15;;;8.70;99.90;;;;;;5113420;28;20279;-79
2020/12/18 08:20:06;;;;;;;3.75;2.38;;;8.70;99.90;;;;;;5132674;27;20196;-79
2020/12/18 08:22:35;;;;;;;2.67;1.80;;;8.70;99.90;;;;;;5134007;27;20632;-79
2020/12/18 08:25:03;;;;;;;2.88;2.40;;;8.80;99.90;;;;;;5129545;27;20824;-79
2020/12/18 08:27:34;;;;;;;3.58;1.58;;;8.80;99.90;;;;;;5134464;27;20256;-79
2020/12/18 08:30:04;;;;;;;4.80;2.08;;;8.80;99.90;;;;;;5132676;27;20193;-79
2020/12/18 08:32:32;;;;;;;2.75;2.05;;;8.70;99.90;;;;;;5133482;27;20651;-79
2020/12/18 08:35:01;;;;;;;2.67;2.40;;;8.70;99.90;;;;;;5120987;27;20197;-79
2020/12/18 08:37:27;;;;;;;2.28;1.77;;;8.70;99.90;;;;;;5113844;28;20633;-79
2020/12/18 08:39:54;;;;;;;2.50;2.30;;;8.70;99.90;;;;;;5120836;27;20225;-79
2020/12/18 08:42:20;;;;;;;3.05;1.90;;;8.80;99.90;;;;;;5113355;28;20207;-79
2020/12/18 08:44:47;;;;;;;2.35;1.92;;;8.70;99.90;;;;;;5113578;28;20557;-79
2020/12/18 08:47:24;;;;;;;2.97;1.92;;;8.70;99.90;;;;;;5112635;28;20648;-79
2020/12/18 08:49:51;;;;;;;1.90;1.50;;;8.70;99.90;;;;;;5115463;27;20196;-80
2020/12/18 08:52:23;;;;;;;2.25;2.05;;;8.80;99.90;;;;;;5119528;27;20213;-80
2020/12/18 08:55:00;;;;;;;2.47;2.03;;;8.70;99.90;;;;;;5121661;27;20184;-80
2020/12/18 08:57:29;;;;;;;4.68;2.33;;;8.70;99.90;;;;;;5125326;27;20195;-80
2020/12/18 08:59:57;;;;;;;2.33;1.70;;;8.70;99.90;;;;;;5129852;27;20553;-79
2020/12/18 09:02:24;;;;;;;4.38;2.05;;;8.70;99.90;;;;;;5112306;28;20218;-79
2020/12/18 09:05:10;;;;;;;3.17;1.80;;;8.70;99.90;;;;;;5112819;28;20200;-80
2020/12/18 09:07:39;;;;;;;1.60;1.50;;;8.70;99.90;;;;;;5112238;28;20209;-80
2020/12/18 09:10:06;;;;;;;3.25;1.90;;;8.70;99.90;;;;;;5122219;27;20517;-80
2020/12/18 09:12:38;;;;;;;2.78;1.85;;;8.80;99.90;;;;;;5112933;27;20208;-80
2020/12/18 09:15:22;;;;;;;3.33;1.88;;;8.90;99.90;;;;;;5115731;27;20187;-80
2020/12/18 09:18:01;;;;;;;8.63;3.75;;;9.00;99.90;;;;;;5122060;27;20280;-79
2020/12/18 09:20:28;;;;;;;3.28;2.53;;;9.00;99.90;;;;;;5116109;27;20185;-77
2020/12/18 09:22:57;;;;;;;5.70;2.65;;;9.20;99.90;;;;;;5112122;27;20279;-74
2020/12/18 09:25:23;;;;;;;4.47;2.40;;;9.20;99.90;;;;;;5112073;28;20189;-75
2020/12/18 09:27:57;;;;;;;4.20;2.58;;;9.30;99.90;;;;;;5112906;28;20193;-75
2020/12/18 09:30:28;;;;;;;3.85;1.83;;;9.30;99.90;;;;;;5112293;28;20202;-74
2020/12/18 09:33:15;;;;;;;4.53;2.08;;;9.40;99.90;;;;;;5116247;27;20208;-75
2020/12/18 09:35:42;;;;;;;3.47;1.67;;;9.40;99.90;;;;;;5113596;27;20748;-75
2020/12/18 09:38:10;;;;;;;2.75;2.25;;;9.40;99.90;;;;;;5128649;27;20196;-75
2020/12/18 09:40:37;;;;;;;4.15;1.90;;;9.30;99.90;;;;;;5125457;27;20304;-77
2020/12/18 09:43:04;;;;;;;2.40;2.20;;;9.20;99.90;;;;;;5112678;28;20189;-76
2020/12/18 09:45:31;;;;;;;3.75;2.20;;;9.20;99.90;;;;;;5112530;28;20197;-77
2020/12/18 09:47:57;;;;;;;1.55;1.45;;;9.20;99.90;;;;;;5112684;28;20200;-76
2020/12/18 09:50:23;;;;;;;2.58;1.88;;;9.20;99.90;;;;;;5115020;27;20192;-76
2020/12/18 09:52:50;;;;;;;6.78;2.05;;;9.20;99.90;;;;;;5124633;27;20226;-76
2020/12/18 09:55:17;;;;;;;2.45;1.70;;;9.20;99.90;;;;;;5132948;27;20283;-76
2020/12/18 09:57:43;;;;;;;2.83;1.92;;;9.20;99.90;;;;;;5132818;27;20195;-77
2020/12/18 10:00:10;;;;;;;2.95;1.85;;;9.30;99.90;;;;;;5119037;27;20197;-77
2020/12/18 10:02:36;;;;;;;6.20;1.65;;;9.30;99.90;;;;;;5112394;28;20195;-76
2020/12/18 10:05:04;;;;;;;4.47;2.65;;;9.20;99.90;;;;;;5112476;28;20245;-76
2020/12/18 10:07:31;;;;;;;2.30;1.48;;;9.30;99.90;;;;;;5122577;27;20309;-76
2020/12/18 10:09:57;;;;;;;3.28;1.90;;;9.30;99.90;;;;;;5126234;27;20292;-76
2020/12/18 10:12:24;;;;;;;3.55;1.80;;;9.30;99.90;;;;;;5128231;27;20676;-76
2020/12/18 10:14:51;;;;;;;1.92;1.70;;;9.30;99.90;;;;;;5116036;28;20216;-76
2020/12/18 10:17:17;;;;;;;3.05;1.85;;;9.40;99.90;;;;;;5121601;27;20248;-76
2020/12/18 10:19:43;;;;;;;2.30;1.73;;;9.40;99.90;;;;;;5117185;27;20350;-76
2020/12/18 10:22:10;;;;;;;1.60;1.50;;;9.40;99.90;;;;;;5116027;28;20193;-77
2020/12/18 10:24:36;;;;;;;5.07;1.85;;;9.50;99.90;;;;;;5123908;27;20200;-76
2020/12/18 10:27:02;;;;;;;2.80;1.50;;;9.40;99.90;;;;;;5132754;27;20276;-76
2020/12/18 10:29:30;;;;;;;3.30;1.58;;;9.50;99.90;;;;;;5135059;27;20196;-77
2020/12/18 10:31:57;;;;;;;3.10;1.63;;;9.60;99.90;;;;;;5136345;27;20642;-76
2020/12/18 10:34:23;;;;;;;5.20;1.77;;;9.60;99.90;;;;;;5136767;27;20223;-76
2020/12/18 10:36:51;;;;;;;3.75;1.63;;;9.60;99.90;;;;;;5134753;27;20198;-76
2020/12/18 10:39:18;;;;;;;18.13;1.80;;;9.60;99.90;;;;;;5129085;27;20233;-77
2020/12/18 10:41:44;;;;;;;2.28;1.60;;;9.60;99.90;;;;;;5121758;27;20211;-76
2020/12/18 10:44:11;;;;;;;6.60;2.17;;;9.60;99.90;;;;;;5119379;27;20188;-76
2020/12/18 10:46:40;;;;;;;2.40;1.55;;;9.60;99.90;;;;;;5136541;27;20215;-75
2020/12/18 10:49:07;;;;;;;2.45;1.30;;;9.60;99.90;;;;;;5129134;27;20516;-76
2020/12/18 10:51:37;;;;;;;1.58;1.20;;;9.60;99.90;;;;;;5136454;27;20210;-76
2020/12/18 10:54:03;;;;;;;2.38;1.75;;;9.60;99.90;;;;;;5136195;27;20227;-75
2020/12/18 10:56:30;;;;;;;2.25;1.60;;;9.60;99.90;;;;;;5131631;27;20192;-79
2020/12/18 10:58:56;;;;;;;2.55;1.60;;;9.60;99.90;;;;;;5135939;27;20208;-74
2020/12/18 11:01:23;;;;;;;2.58;1.60;;;9.70;99.90;;;;;;5118307;27;20201;-76
2020/12/18 11:03:50;;;;;;;1.92;1.60;;;9.70;99.90;;;;;;5114503;28;20197;-74
2020/12/18 11:06:16;;;;;;;2.72;1.75;;;9.70;99.90;;;;;;5121665;27;20193;-75
2020/12/18 11:08:43;;;;;;;2.25;1.23;;;9.80;99.90;;;;;;5136027;27;20214;-74
2020/12/18 11:11:13;;;;;;;3.60;1.50;;;9.80;99.90;;;;;;5133399;27;20211;-76
2020/12/18 11:13:39;;;;;;;7.00;1.80;;;9.80;99.90;;;;;;5115043;28;20217;-75
2020/12/18 11:16:05;;;;;;;2.92;1.65;;;9.80;99.90;;;;;;5132565;27;20196;-76
2020/12/18 11:18:34;;;;;;;1.73;1.30;;;9.80;99.90;;;;;;5130753;27;20192;-75
2020/12/18 11:21:02;;;;;;;2.38;1.70;;;9.80;99.90;;;;;;5130510;27;20193;-74
2020/12/18 11:23:28;;;;;;;2.75;1.95;;;9.80;99.90;;;;;;5122340;27;20194;-76
2020/12/18 11:25:54;;;;;;;6.20;1.80;;;9.90;99.90;;;;;;5123292;27;20604;-75
2020/12/18 11:28:20;;;;;;;2.10;1.50;;;9.90;99.90;;;;;;5121233;27;20607;-76
2020/12/18 11:30:47;;;;;;;2.40;1.30;;;9.90;99.90;;;;;;5129123;27;20204;-74
2020/12/18 11:33:13;;;;;;;1.40;1.30;;;9.90;99.90;;;;;;5124835;27;20222;-76
2020/12/18 11:35:39;;;;;;;3.47;1.52;;;9.90;99.90;;;;;;5127660;27;20703;-78
2020/12/18 11:38:07;;;;;;;3.03;1.70;;;9.90;99.90;;;;;;5123737;27;20195;-77
2020/12/18 11:40:33;;;;;;;1.10;1.00;;;9.90;99.90;;;;;;5133648;27;20244;-76
2020/12/18 11:42:59;;;;;;;7.15;1.65;;;9.90;99.90;;;;;;5134594;27;20200;-75
2020/12/18 11:45:26;;;;;;;3.58;1.10;;;9.90;99.90;;;;;;5133247;27;20200;-74
2020/12/18 11:47:52;;;;;;;10.45;1.80;;;10.00;99.90;;;;;;5134980;27;20538;-74
2020/12/18 11:50:18;;;;;;;4.25;1.60;;;10.00;99.90;;;;;;5134776;27;20210;-75
2020/12/18 11:52:45;;;;;;;2.30;2.10;;;10.00;99.90;;;;;;5133607;27;20387;-78
2020/12/18 11:55:12;;;;;;;2.10;1.38;;;10.00;99.90;;;;;;5129757;27;20187;-76
2020/12/18 11:57:38;;;;;;;2.55;1.63;;;10.00;99.90;;;;;;5121342;27;20206;-78
2020/12/18 12:00:05;;;;;;;2.38;1.40;;;10.00;99.90;;;;;;5131888;27;20532;-81
2020/12/18 12:02:33;;;;;;;1.73;1.40;;;10.00;99.90;;;;;;5120000;27;20288;-77
2020/12/18 12:04:59;;;;;;;1.45;1.35;;;10.00;99.90;;;;;;5120953;27;20646;-79
2020/12/18 12:07:26;;;;;;;4.35;1.65;;;10.00;99.90;;;;;;5125653;27;20636;-80
2020/12/18 12:09:52;;;;;;;1.75;1.35;;;10.00;99.90;;;;;;5127128;27;20202;-78
2020/12/18 12:12:19;;;;;;;1.70;1.48;;;9.90;99.90;;;;;;5121241;27;20193;-81
2020/12/18 12:14:45;;;;;;;3.88;1.40;;;9.90;99.90;;;;;;5122902;27;20574;-80
2020/12/18 12:17:12;;;;;;;2.95;1.52;;;9.90;99.90;;;;;;5121965;27;20207;-78
2020/12/18 12:19:38;;;;;;;1.40;1.30;;;9.90;99.90;;;;;;5114006;28;20506;-76
2020/12/18 12:22:04;;;;;;;1.45;1.35;;;9.90;99.90;;;;;;5114043;28;20209;-77
2020/12/18 12:24:31;;;;;;;6.18;1.55;;;9.90;99.90;;;;;;5123535;27;20195;-78
2020/12/18 12:26:57;;;;;;;1.30;1.20;;;9.90;99.90;;;;;;5114337;28;20583;-77
2020/12/18 12:29:24;;;;;;;2.45;1.40;;;9.90;99.90;;;;;;5115774;27;20193;-77
2020/12/18 12:31:50;;;;;;;1.50;1.20;;;9.90;99.90;;;;;;5124188;27;20193;-78
2020/12/18 12:34:17;;;;;;;1.55;1.38;;;9.90;99.90;;;;;;5114045;28;20235;-77
2020/12/18 12:36:43;;;;;;;1.80;1.30;;;9.90;99.90;;;;;;5128987;27;20200;-78
2020/12/18 12:39:09;;;;;;;3.13;2.83;;;9.80;99.90;;;;;;5116478;27;20663;-80
2020/12/18 12:41:35;;;;;;;4.20;2.05;;;9.80;99.90;;;;;;5127477;27;20184;-78
2020/12/18 12:44:02;;;;;;;3.45;1.38;;;9.80;99.90;;;;;;5135951;27;20244;-78
2020/12/18 12:46:29;;;;;;;1.65;1.42;;;9.80;99.90;;;;;;5126118;27;20220;-79
2020/12/18 12:48:57;;;;;;;1.50;1.10;;;9.80;99.90;;;;;;5126594;27;20193;-78
2020/12/18 12:51:23;;;;;;;2.03;0.95;;;9.90;99.90;;;;;;5129354;27;20230;-78
2020/12/18 12:53:50;;;;;;;2.08;1.38;;;9.80;99.90;;;;;;5122878;27;20540;-77
2020/12/18 12:56:16;;;;;;;1.30;1.20;;;9.90;99.90;;;;;;5124645;27;20278;-77
2020/12/18 12:58:43;;;;;;;3.22;1.20;;;9.90;99.90;;;;;;5129491;27;20612;-80